Decoded Metar for KLUM (MENOMONIE MUNI in WI, USA) (IATA:LUM) | Meteo·Mobile Aviation Weather
aviador You're here:

KLUM Decoded Metar

MENOMONIE MUNI in WI, USA
Report Time2019-02-20 19:35:00
UTC Time2019-02-20 19:48:06
Flight Rules lifr LIFR
Wind090° at 07 kt
W.Decomp.*RWY 09: 7.0 kt HW 0.1 kt LCW
RWY 36: 0.1 kt HW 7.0 kt RCW
W.Rank090° ranks 10
Current wind is above 090° avg. (5.8)
Visibility1207 m
Phenomena:Snow
Clouds:Overcast 007 Hf
Expected CloudBase > 800 ft AGL from Temp-Dew spread
Ceiling700 ft
Temp-4°C (ISA -17)
Dew Point-6°C (86% RH)
AAT-9.2°C
QNH1003 hPa
Density Alt-820 ft
Elevation896 ft
Report Wrong Elevation
Raw Report
KLUM 201935Z AUTO 09007KT 3/4SM SN OVC007 M04/M06 A2962 RMK AO2
P0002 T10451065=

Extra information for KLUM:More info

Metar Taf Metar & Taf Last 4 Metars F.Rules Stats Wind Profile Meteogram Temp Stats Airport Information Weather charts Add Link Nearby VenuesMetar ALERT Operation Metar Decoded Social comments

AIRNAV info for KLUM